Time;durP1;ratioP1;P1;durP2;ratioP2;P2;SDS_P1;SDS_P2;PMS_P1;PMS_P2;Temp;Humidity;BMP_temperature;BMP_pressure;BME280_temperature;BME280_humidity;BME280_pressure;Samples;Min_cycle;Max_cycle;Signal;HPM_P1;HPM_P2
2022/07/29 00:00:52;;;;;;;6.97;2.50;;;17.50;68.40;;;;;;2114094;28;20024;-75
2022/07/29 00:01:56;;;;;;;4.32;2.60;;;17.50;68.50;;;;;;2110571;28;20038;-75
2022/07/29 00:02:57;;;;;;;5.82;2.50;;;17.50;68.70;;;;;;2110395;28;20031;-75
2022/07/29 00:03:58;;;;;;;7.55;2.60;;;17.50;68.80;;;;;;2101438;28;20024;-74
2022/07/29 00:04:59;;;;;;;7.40;2.63;;;17.50;68.80;;;;;;2101219;28;20024;-75
2022/07/29 00:06:00;;;;;;;5.40;2.60;;;17.50;68.80;;;;;;2109969;28;20039;-75
2022/07/29 00:07:01;;;;;;;3.53;2.65;;;17.40;69.00;;;;;;2107992;28;20046;-75
2022/07/29 00:08:01;;;;;;;6.50;2.83;;;17.40;69.10;;;;;;2109867;28;20095;-76
2022/07/29 00:09:03;;;;;;;2.92;2.50;;;17.50;69.00;;;;;;2111331;28;20016;-75
2022/07/29 00:10:04;;;;;;;5.05;2.88;;;17.50;69.00;;;;;;2109784;28;20024;-73
2022/07/29 00:11:08;;;;;;;4.72;2.58;;;17.50;68.90;;;;;;2107590;28;20036;-75
2022/07/29 00:12:09;;;;;;;3.28;2.70;;;17.40;68.70;;;;;;2099959;28;20025;-76
2022/07/29 00:13:10;;;;;;;3.92;2.60;;;17.50;68.80;;;;;;2090090;28;20561;-75
2022/07/29 00:14:11;;;;;;;5.40;2.75;;;17.50;68.80;;;;;;2098270;28;20055;-77
2022/07/29 00:15:11;;;;;;;5.20;2.72;;;17.50;68.80;;;;;;2107333;28;20081;-74
2022/07/29 00:16:13;;;;;;;5.40;2.60;;;17.40;68.90;;;;;;2106190;28;20069;-74
2022/07/29 00:17:16;;;;;;;5.95;2.40;;;17.40;68.90;;;;;;2107664;28;20016;-76
2022/07/29 00:18:17;;;;;;;5.45;2.65;;;17.40;68.90;;;;;;2109099;28;20020;-75
2022/07/29 00:19:18;;;;;;;5.13;2.63;;;17.40;68.90;;;;;;2091499;28;20123;-74
2022/07/29 00:20:22;;;;;;;4.80;2.53;;;17.40;69.00;;;;;;2089229;28;20017;-76
2022/07/29 00:21:23;;;;;;;3.50;2.65;;;17.40;69.20;;;;;;2089645;28;20024;-74
2022/07/29 00:22:27;;;;;;;4.93;2.50;;;17.30;69.10;;;;;;2099735;28;20024;-75
2022/07/29 00:23:31;;;;;;;3.40;2.55;;;17.30;69.10;;;;;;2099272;28;20020;-75
2022/07/29 00:24:35;;;;;;;4.15;2.60;;;17.30;69.10;;;;;;2100018;28;20020;-75
2022/07/29 00:25:36;;;;;;;4.50;2.53;;;17.20;69.20;;;;;;2106404;28;20028;-75
2022/07/29 00:26:37;;;;;;;4.72;2.30;;;17.20;69.40;;;;;;2098322;28;20033;-75
2022/07/29 00:27:38;;;;;;;4.20;2.42;;;17.20;69.50;;;;;;2097503;28;20033;-73
2022/07/29 00:28:39;;;;;;;3.83;2.70;;;17.20;69.60;;;;;;2097008;28;20473;-74
2022/07/29 00:29:40;;;;;;;5.65;2.63;;;17.20;69.80;;;;;;2098729;28;20029;-75
2022/07/29 00:30:42;;;;;;;3.58;2.55;;;17.20;69.90;;;;;;2098052;28;20133;-74
2022/07/29 00:31:46;;;;;;;5.32;2.53;;;17.10;69.90;;;;;;2098703;28;20406;-76
2022/07/29 00:32:50;;;;;;;4.65;2.75;;;17.10;70.00;;;;;;2092702;28;20105;-76
2022/07/29 00:33:50;;;;;;;3.15;2.40;;;17.10;70.20;;;;;;2091282;28;20082;-76
2022/07/29 00:36:11;;;;;;;6.20;2.90;;;17.10;70.40;;;;;;2106042;28;20031;-77
2022/07/29 00:37:11;;;;;;;2.75;2.40;;;17.00;70.50;;;;;;2105290;28;20020;-76
2022/07/29 00:38:14;;;;;;;4.18;2.47;;;17.00;70.70;;;;;;2097249;28;20044;-75
2022/07/29 00:39:15;;;;;;;4.68;2.60;;;17.00;70.70;;;;;;2096974;28;20029;-75
2022/07/29 00:40:15;;;;;;;3.33;2.30;;;17.00;70.90;;;;;;2087991;28;20112;-76
2022/07/29 00:41:16;;;;;;;5.07;2.65;;;17.00;72.00;;;;;;2090360;28;20035;-76
2022/07/29 00:42:18;;;;;;;3.25;2.47;;;16.90;71.20;;;;;;2106726;28;20040;-76
2022/07/29 00:43:22;;;;;;;3.83;2.55;;;16.90;71.30;;;;;;2108362;28;20099;-78
2022/07/29 00:44:23;;;;;;;3.60;2.60;;;16.90;71.60;;;;;;2108999;28;20028;-75
2022/07/29 00:45:24;;;;;;;3.10;2.60;;;16.90;71.70;;;;;;2092155;28;20123;-75
2022/07/29 00:46:25;;;;;;;5.10;2.50;;;16.80;71.80;;;;;;2100181;28;20487;-75
2022/07/29 00:47:25;;;;;;;4.20;2.60;;;16.80;71.90;;;;;;2106347;28;20081;-75
2022/07/29 00:48:26;;;;;;;4.50;2.70;;;16.80;72.00;;;;;;2104516;28;20024;-75
2022/07/29 00:49:27;;;;;;;4.45;2.80;;;16.80;72.20;;;;;;2105486;28;20036;-76
2022/07/29 00:50:27;;;;;;;4.75;2.80;;;16.80;72.40;;;;;;2105261;28;20078;-74
2022/07/29 00:51:37;;;;;;;4.07;2.70;;;16.80;72.40;;;;;;2097998;28;20725;-76
2022/07/29 00:52:40;;;;;;;5.60;2.80;;;16.80;72.60;;;;;;2099595;28;20490;-75
2022/07/29 00:53:41;;;;;;;3.95;2.60;;;16.70;72.70;;;;;;2107746;28;20504;-75
2022/07/29 00:54:45;;;;;;;4.22;2.88;;;16.70;72.90;;;;;;2099013;28;20025;-74
2022/07/29 00:55:46;;;;;;;5.43;2.80;;;16.70;73.10;;;;;;2097309;28;20048;-75
2022/07/29 00:56:47;;;;;;;3.97;2.70;;;16.70;73.30;;;;;;2097723;28;20024;-75
2022/07/29 00:57:49;;;;;;;4.28;2.67;;;16.70;73.40;;;;;;2104435;28;20032;-75
2022/07/29 00:58:51;;;;;;;4.40;3.10;;;16.70;73.60;;;;;;2106687;28;20043;-76
2022/07/29 00:59:52;;;;;;;4.95;2.60;;;16.70;73.80;;;;;;2095007;28;20029;-76
2022/07/29 01:00:53;;;;;;;4.13;2.60;;;16.70;74.00;;;;;;2100414;28;20036;-76
2022/07/29 01:01:55;;;;;;;2.63;2.40;;;16.70;74.10;;;;;;2084725;28;20105;-75
2022/07/29 01:02:56;;;;;;;4.65;2.70;;;16.70;74.30;;;;;;2082325;28;20034;-76
2022/07/29 01:03:57;;;;;;;4.97;2.60;;;16.70;74.40;;;;;;2098153;28;21275;-76
2022/07/29 01:04:58;;;;;;;5.78;2.80;;;16.70;74.40;;;;;;2107247;28;20039;-75
2022/07/29 01:06:00;;;;;;;4.47;2.60;;;16.60;74.40;;;;;;2107647;28;20016;-75
2022/07/29 01:07:02;;;;;;;4.45;2.60;;;16.60;74.60;;;;;;2107837;28;20097;-75
2022/07/29 01:08:03;;;;;;;4.55;2.60;;;16.60;74.70;;;;;;2107801;28;20024;-75
2022/07/29 01:09:05;;;;;;;4.25;2.70;;;16.60;74.80;;;;;;2105842;28;20066;-76
2022/07/29 01:10:08;;;;;;;4.40;2.70;;;16.60;74.90;;;;;;2106308;28;20123;-77
2022/07/29 01:11:09;;;;;;;6.50;2.60;;;16.60;75.00;;;;;;2105030;28;20019;-77
2022/07/29 01:12:12;;;;;;;4.82;2.80;;;16.60;75.10;;;;;;2105204;28;20099;-77
2022/07/29 01:13:15;;;;;;;5.93;2.97;;;16.50;75.30;;;;;;2105749;28;20515;-77
2022/07/29 01:14:16;;;;;;;6.38;2.70;;;16.60;75.40;;;;;;2105727;28;20034;-76
2022/07/29 01:15:17;;;;;;;4.97;2.75;;;16.60;75.60;;;;;;2105597;28;20141;-76
2022/07/29 01:16:25;;;;;;;4.90;2.90;;;16.50;76.40;;;;;;2105964;28;20523;-77
2022/07/29 01:17:43;;;;;;;7.22;2.88;;;16.50;75.70;;;;;;2106057;28;20573;-76
2022/07/29 01:18:51;;;;;;;5.65;2.60;;;16.50;75.80;;;;;;2097467;28;20024;-76
2022/07/29 01:20:09;;;;;;;5.28;2.63;;;16.50;75.80;;;;;;2099274;28;20021;-76
2022/07/29 01:21:12;;;;;;;3.65;2.63;;;16.50;76.80;;;;;;2106565;28;20028;-78
2022/07/29 01:23:12;;;;;;;7.25;2.88;;;16.50;75.90;;;;;;2098255;28;20619;-76
2022/07/29 01:24:59;;;;;;;6.18;2.90;;;16.50;76.10;;;;;;2103978;28;20030;-76
2022/07/29 01:26:14;;;;;;;5.15;2.80;;;16.50;76.30;;;;;;2098508;28;20056;-76
2022/07/29 01:27:15;;;;;;;5.30;2.78;;;16.50;76.40;;;;;;2107333;28;20071;-77
2022/07/29 01:28:54;;;;;;;3.92;2.90;;;16.50;76.60;;;;;;2093239;28;20092;-75
2022/07/29 01:30:05;;;;;;;5.70;2.97;;;16.40;76.70;;;;;;2103635;28;20047;-75
2022/07/29 01:31:06;;;;;;;;;;;16.40;76.70;;;;;;2111280;28;20922;-75
2022/07/29 01:32:24;;;;;;;6.18;3.03;;;16.40;76.90;;;;;;2110644;28;20284;-76
2022/07/29 01:34:50;;;;;;;6.18;3.08;;;16.40;77.00;;;;;;2100492;28;20028;-76
2022/07/29 01:35:51;;;;;;;6.18;2.92;;;16.40;77.20;;;;;;2108258;28;20024;-76
2022/07/29 01:37:06;;;;;;;5.88;3.00;;;16.40;77.10;;;;;;2099156;28;20835;-76
2022/07/29 01:38:16;;;;;;;4.25;2.95;;;16.40;77.20;;;;;;2106790;28;20085;-75
2022/07/29 01:39:27;;;;;;;6.95;3.10;;;16.40;77.50;;;;;;2107676;28;20023;-75
2022/07/29 01:40:34;;;;;;;4.38;2.97;;;16.40;77.50;;;;;;2098677;28;20108;-75
2022/07/29 01:41:44;;;;;;;3.75;2.90;;;16.40;77.80;;;;;;2103972;28;20017;-76
2022/07/29 01:42:50;;;;;;;4.28;2.88;;;16.40;77.80;;;;;;2112875;28;20055;-76
2022/07/29 01:43:56;;;;;;;6.88;3.00;;;16.40;77.80;;;;;;2113089;28;20024;-77
2022/07/29 01:45:09;;;;;;;5.28;3.03;;;16.40;77.90;;;;;;2112908;28;20028;-77
2022/07/29 01:46:20;;;;;;;8.10;3.15;;;16.40;78.10;;;;;;2111458;28;20039;-74
2022/07/29 01:47:32;;;;;;;6.68;3.30;;;16.40;78.10;;;;;;2112196;28;20024;-76
2022/07/29 01:48:47;;;;;;;4.75;2.83;;;16.40;78.30;;;;;;2111703;28;20028;-76
2022/07/29 01:49:54;;;;;;;5.38;3.03;;;16.40;78.30;;;;;;2104621;28;20028;-75
2022/07/29 01:51:24;;;;;;;4.40;3.00;;;16.40;78.30;;;;;;2108884;28;20047;-75
2022/07/29 01:52:39;;;;;;;5.45;3.17;;;16.40;78.40;;;;;;2099944;28;20027;-75
2022/07/29 01:53:55;;;;;;;5.28;3.00;;;16.40;78.50;;;;;;2093274;28;20071;-75
2022/07/29 01:54:58;;;;;;;5.65;3.10;;;16.40;78.50;;;;;;2107376;28;20101;-76
2022/07/29 01:56:01;;;;;;;3.97;2.80;;;16.40;79.10;;;;;;2107030;28;20035;-75
2022/07/29 01:57:04;;;;;;;4.70;3.15;;;16.40;78.30;;;;;;2106839;28;20066;-76
2022/07/29 01:58:06;;;;;;;4.72;3.08;;;16.40;78.30;;;;;;2106705;28;20023;-76
2022/07/29 01:59:09;;;;;;;5.78;3.17;;;16.40;78.40;;;;;;2107486;28;20028;-76
2022/07/29 02:00:11;;;;;;;6.00;3.38;;;16.40;78.40;;;;;;2108640;28;20513;-76
2022/07/29 02:01:16;;;;;;;9.57;3.60;;;16.40;78.40;;;;;;2106918;28;20028;-76
2022/07/29 02:02:18;;;;;;;3.78;2.80;;;16.40;78.50;;;;;;2108911;28;20043;-76
2022/07/29 02:03:20;;;;;;;6.20;2.95;;;16.40;78.50;;;;;;2108407;28;20016;-75
2022/07/29 02:04:22;;;;;;;5.07;3.25;;;16.40;78.60;;;;;;2109020;28;20028;-74
2022/07/29 02:05:25;;;;;;;4.47;2.90;;;16.40;78.80;;;;;;2110098;28;20047;-77
2022/07/29 02:06:27;;;;;;;6.25;3.38;;;16.40;78.80;;;;;;2100721;28;20052;-76
2022/07/29 02:07:30;;;;;;;5.68;3.20;;;16.40;78.90;;;;;;2099106;28;20028;-77
2022/07/29 02:08:33;;;;;;;6.75;3.15;;;16.30;79.00;;;;;;2106510;28;20630;-76
2022/07/29 02:09:37;;;;;;;5.03;3.35;;;16.30;79.10;;;;;;2107800;28;20028;-75
2022/07/29 02:11:10;;;;;;;6.22;3.33;;;16.40;79.10;;;;;;2099228;28;20032;-75
2022/07/29 02:12:31;;;;;;;8.60;3.40;;;16.40;79.30;;;;;;2104021;28;20027;-74
2022/07/29 02:13:35;;;;;;;6.28;3.40;;;16.40;79.30;;;;;;2106020;28;20020;-73
2022/07/29 02:14:43;;;;;;;4.45;3.08;;;16.40;79.40;;;;;;2105268;28;20028;-74
2022/07/29 02:15:45;;;;;;;8.77;3.60;;;16.40;79.40;;;;;;2098815;28;20493;-74
2022/07/29 02:16:48;;;;;;;6.18;3.58;;;16.40;79.50;;;;;;2107126;28;20152;-74
2022/07/29 02:17:55;;;;;;;5.82;3.70;;;16.40;79.50;;;;;;2106114;28;20169;-74
2022/07/29 02:18:57;;;;;;;6.95;3.80;;;16.40;79.70;;;;;;2106181;28;20032;-75
2022/07/29 02:20:01;;;;;;;5.03;3.63;;;16.40;79.70;;;;;;2106084;28;20116;-75
2022/07/29 02:21:03;;;;;;;5.63;3.90;;;16.40;79.70;;;;;;2098317;28;20379;-75
2022/07/29 02:22:06;;;;;;;5.47;3.65;;;16.30;79.80;;;;;;2105658;28;20091;-74
2022/07/29 02:23:11;;;;;;;5.10;3.53;;;16.40;79.90;;;;;;2106493;28;20043;-75
2022/07/29 02:24:13;;;;;;;6.57;3.90;;;16.30;80.00;;;;;;2106173;28;20501;-74
2022/07/29 02:25:16;;;;;;;8.02;4.32;;;16.40;80.20;;;;;;2097722;28;20017;-75
2022/07/29 02:26:20;;;;;;;5.22;3.97;;;16.40;80.10;;;;;;2098549;28;20047;-75
2022/07/29 02:27:27;;;;;;;6.32;4.18;;;16.40;80.20;;;;;;2107298;28;20478;-76
2022/07/29 02:28:29;;;;;;;7.93;4.65;;;16.40;80.40;;;;;;2097289;28;20024;-75
2022/07/29 02:29:32;;;;;;;8.75;4.70;;;16.40;80.40;;;;;;2097937;28;20028;-73
2022/07/29 02:30:36;;;;;;;7.35;5.05;;;16.30;80.50;;;;;;2105239;28;20390;-74
2022/07/29 02:31:43;;;;;;;12.10;5.10;;;16.30;80.50;;;;;;2106795;28;20163;-75
2022/07/29 02:32:46;;;;;;;8.73;5.85;;;16.30;80.70;;;;;;2105250;28;20023;-76
2022/07/29 02:33:47;;;;;;;8.27;5.93;;;16.30;80.80;;;;;;2104653;28;20039;-75
2022/07/29 02:34:49;;;;;;;10.88;5.80;;;16.30;80.90;;;;;;2104963;28;20032;-75
2022/07/29 02:35:50;;;;;;;10.05;6.32;;;16.30;81.00;;;;;;2105488;28;20024;-76
2022/07/29 02:36:53;;;;;;;8.05;5.95;;;16.30;81.00;;;;;;2108457;28;20032;-74
2022/07/29 02:39:15;;;;;;;9.88;6.15;;;16.30;81.30;;;;;;2106540;28;20093;-75
2022/07/29 02:40:22;;;;;;;8.30;6.38;;;16.30;81.40;;;;;;2105930;28;20031;-76
2022/07/29 02:41:37;;;;;;;10.32;6.65;;;16.30;81.30;;;;;;2105396;28;20024;-75
2022/07/29 02:42:40;;;;;;;9.85;6.57;;;16.30;81.40;;;;;;2106091;28;20047;-76
2022/07/29 02:43:43;;;;;;;10.93;6.32;;;16.30;81.50;;;;;;2098379;28;20078;-76
2022/07/29 02:44:44;;;;;;;9.20;6.45;;;16.20;81.60;;;;;;2106370;28;20039;-75
2022/07/29 02:45:51;;;;;;;12.23;7.53;;;16.30;81.70;;;;;;2106601;28;20141;-75
2022/07/29 02:47:03;;;;;;;10.75;7.32;;;16.20;81.80;;;;;;2106568;28;20112;-76
2022/07/29 02:48:09;;;;;;;10.63;7.25;;;16.30;82.00;;;;;;2105441;28;20142;-76
2022/07/29 02:49:16;;;;;;;15.20;9.45;;;16.30;82.10;;;;;;2098385;28;20107;-76
2022/07/29 02:50:32;;;;;;;15.32;9.30;;;16.20;82.20;;;;;;2105943;28;20028;-76
2022/07/29 02:51:45;;;;;;;13.30;8.57;;;16.20;82.30;;;;;;2105978;28;20554;-76
2022/07/29 02:52:52;;;;;;;14.55;8.43;;;16.20;82.50;;;;;;2106323;28;20123;-77
2022/07/29 02:53:55;;;;;;;12.60;8.63;;;16.20;82.70;;;;;;2106649;28;20035;-76
2022/07/29 02:55:01;;;;;;;14.02;9.25;;;16.20;82.70;;;;;;2105723;28;20671;-76
2022/07/29 02:56:14;;;;;;;12.88;9.20;;;16.20;82.80;;;;;;2098146;28;20043;-76
2022/07/29 02:57:22;;;;;;;14.07;10.02;;;16.20;82.70;;;;;;2098991;28;20427;-76
2022/07/29 02:58:29;;;;;;;15.52;10.68;;;16.20;82.80;;;;;;2091405;28;20411;-77
2022/07/29 02:59:34;;;;;;;18.23;11.60;;;16.20;82.90;;;;;;2097550;28;20394;-76
2022/07/29 03:00:37;;;;;;;16.55;11.60;;;16.20;83.10;;;;;;2106372;28;20016;-76
2022/07/29 03:01:42;;;;;;;18.58;12.02;;;16.10;83.20;;;;;;2105854;28;20062;-76
2022/07/29 03:02:45;;;;;;;21.67;12.57;;;16.10;83.30;;;;;;2098752;28;20111;-76
2022/07/29 03:03:48;;;;;;;18.80;12.52;;;16.20;83.40;;;;;;2106451;28;20088;-76
2022/07/29 03:04:51;;;;;;;19.13;12.88;;;16.20;83.50;;;;;;2105657;28;20024;-76
2022/07/29 03:05:59;;;;;;;18.33;12.75;;;16.10;83.50;;;;;;2105192;28;20066;-75
2022/07/29 03:07:01;;;;;;;20.17;13.05;;;16.10;83.60;;;;;;2105529;28;20019;-76
2022/07/29 03:08:07;;;;;;;21.00;13.55;;;16.10;83.70;;;;;;2106118;28;20107;-76
2022/07/29 03:09:10;;;;;;;24.50;13.95;;;16.20;83.70;;;;;;2106184;28;20062;-75
2022/07/29 03:10:12;;;;;;;22.92;14.50;;;16.20;83.80;;;;;;2105965;28;20028;-76
2022/07/29 03:11:13;;;;;;;20.27;14.38;;;16.20;83.90;;;;;;2105402;28;20115;-75
2022/07/29 03:12:15;;;;;;;21.83;14.50;;;16.20;84.00;;;;;;2105602;28;20012;-76
2022/07/29 03:13:18;;;;;;;20.27;14.40;;;16.10;83.90;;;;;;2105263;28;20047;-76
2022/07/29 03:14:20;;;;;;;21.77;15.10;;;16.10;84.10;;;;;;2105341;28;20039;-77
2022/07/29 03:15:21;;;;;;;21.25;14.52;;;16.20;84.30;;;;;;2105551;28;20020;-75
2022/07/29 03:16:23;;;;;;;23.02;15.07;;;16.10;84.30;;;;;;2106249;28;20061;-75
2022/07/29 03:17:25;;;;;;;21.20;14.38;;;16.10;84.20;;;;;;2105812;28;20020;-76
2022/07/29 03:18:26;;;;;;;21.90;14.70;;;16.10;84.30;;;;;;2105703;28;20039;-76
2022/07/29 03:19:27;;;;;;;21.48;14.30;;;16.10;84.40;;;;;;2105223;28;20113;-76
2022/07/29 03:20:28;;;;;;;24.23;14.32;;;16.10;84.50;;;;;;2105865;28;20111;-76
2022/07/29 03:21:28;;;;;;;23.23;13.82;;;16.10;84.70;;;;;;2106591;28;20032;-76
2022/07/29 03:22:30;;;;;;;19.02;13.68;;;16.10;84.80;;;;;;2104956;28;20518;-75
2022/07/29 03:23:30;;;;;;;21.98;14.38;;;16.10;84.80;;;;;;2105167;28;20078;-76
2022/07/29 03:24:34;;;;;;;19.08;13.50;;;16.00;84.90;;;;;;2106226;28;20024;-77
2022/07/29 03:25:35;;;;;;;20.58;13.60;;;16.10;85.20;;;;;;2105551;28;20020;-76
2022/07/29 03:26:36;;;;;;;19.02;13.57;;;16.10;85.20;;;;;;2105945;28;20584;-75
2022/07/29 03:27:37;;;;;;;21.88;14.30;;;16.00;85.20;;;;;;2106974;28;20801;-76
2022/07/29 03:28:38;;;;;;;20.15;13.98;;;16.10;85.30;;;;;;2098070;28;20027;-76
2022/07/29 03:29:38;;;;;;;20.55;13.75;;;16.00;85.30;;;;;;2097441;28;20064;-75
2022/07/29 03:30:39;;;;;;;21.77;15.02;;;16.10;85.40;;;;;;2105967;28;20032;-75
2022/07/29 03:31:46;;;;;;;22.17;14.65;;;16.10;85.50;;;;;;2108248;28;20035;-75
2022/07/29 03:32:50;;;;;;;19.77;14.18;;;16.10;85.50;;;;;;2107519;28;20024;-76
2022/07/29 03:33:51;;;;;;;22.48;15.25;;;16.10;85.80;;;;;;2105649;28;20039;-75
2022/07/29 03:34:52;;;;;;;19.45;14.52;;;16.10;85.70;;;;;;2105290;28;20032;-75
2022/07/29 03:35:53;;;;;;;23.00;14.48;;;16.10;85.80;;;;;;2107074;28;20123;-75
2022/07/29 03:36:53;;;;;;;20.65;15.10;;;16.10;85.90;;;;;;2098439;28;20032;-77
2022/07/29 03:37:54;;;;;;;22.13;15.20;;;16.10;85.90;;;;;;2097683;28;20055;-75
2022/07/29 03:38:55;;;;;;;22.77;15.07;;;16.00;85.90;;;;;;2097562;28;20032;-75
2022/07/29 03:39:57;;;;;;;22.05;14.80;;;16.10;86.20;;;;;;2098230;28;20036;-77
2022/07/29 03:41:03;;;;;;;21.95;15.32;;;16.10;86.20;;;;;;2090337;28;20032;-77
2022/07/29 03:42:10;;;;;;;20.10;14.77;;;16.10;87.10;;;;;;2098160;28;20036;-76
2022/07/29 03:43:12;;;;;;;24.50;14.65;;;16.10;86.20;;;;;;2098431;28;20120;-77
2022/07/29 03:44:15;;;;;;;19.80;15.20;;;16.10;86.30;;;;;;2090501;28;20029;-77
2022/07/29 03:45:18;;;;;;;21.92;15.50;;;16.10;86.40;;;;;;2105914;28;20059;-77
2022/07/29 03:46:22;;;;;;;24.70;15.70;;;16.10;86.50;;;;;;2109440;28;20031;-77
2022/07/29 03:47:27;;;;;;;21.75;15.20;;;16.10;86.50;;;;;;2109486;28;20020;-78
2022/07/29 03:48:31;;;;;;;22.38;15.52;;;16.10;86.50;;;;;;2108347;28;20572;-77
2022/07/29 03:49:34;;;;;;;24.05;15.52;;;16.20;86.50;;;;;;2106939;28;20089;-78
2022/07/29 03:50:36;;;;;;;20.73;16.02;;;16.20;86.50;;;;;;2106255;28;20024;-77
2022/07/29 03:51:37;;;;;;;21.20;16.40;;;16.20;86.70;;;;;;2097932;28;20465;-77
2022/07/29 03:52:37;;;;;;;21.08;16.35;;;16.20;86.80;;;;;;2099154;28;20543;-78
2022/07/29 03:53:38;;;;;;;26.98;16.35;;;16.20;86.70;;;;;;2108551;28;20025;-79
2022/07/29 03:54:39;;;;;;;22.90;16.67;;;16.20;86.90;;;;;;2108739;28;20024;-75
2022/07/29 03:55:46;;;;;;;22.63;15.95;;;16.20;87.00;;;;;;2099006;28;20309;-77
2022/07/29 03:56:51;;;;;;;25.02;17.05;;;16.20;87.10;;;;;;2100706;28;20032;-76
2022/07/29 03:57:52;;;;;;;25.35;16.98;;;16.20;87.20;;;;;;2110408;28;20046;-77
2022/07/29 03:58:54;;;;;;;23.13;16.45;;;16.20;87.20;;;;;;2109986;28;20142;-78
2022/07/29 03:59:55;;;;;;;21.35;15.95;;;16.20;87.30;;;;;;2100357;28;20040;-78
2022/07/29 04:00:57;;;;;;;26.30;16.75;;;16.20;87.30;;;;;;2107996;28;20115;-78
2022/07/29 04:01:58;;;;;;;24.02;16.83;;;16.20;87.50;;;;;;2107037;28;20073;-79
2022/07/29 04:03:00;;;;;;;24.83;17.73;;;16.20;87.60;;;;;;2107472;28;20040;-78
2022/07/29 04:04:02;;;;;;;25.27;17.52;;;16.10;87.60;;;;;;2099146;28;20506;-80
2022/07/29 04:05:03;;;;;;;27.88;19.00;;;16.10;87.90;;;;;;2098576;28;20029;-79
2022/07/29 04:06:06;;;;;;;26.92;18.98;;;16.20;87.90;;;;;;2106924;28;20024;-79
2022/07/29 04:07:06;;;;;;;29.13;19.70;;;16.20;88.00;;;;;;2106970;28;20027;-79
2022/07/29 04:08:07;;;;;;;29.50;19.98;;;16.20;88.00;;;;;;2107826;28;20066;-78
2022/07/29 04:09:08;;;;;;;28.33;20.92;;;16.20;88.20;;;;;;2107540;28;20028;-79
2022/07/29 04:10:09;;;;;;;31.98;22.85;;;16.20;88.00;;;;;;2107887;28;20056;-78
2022/07/29 04:11:10;;;;;;;32.50;22.17;;;16.20;88.00;;;;;;2106880;28;20071;-77
2022/07/29 04:12:11;;;;;;;30.52;22.80;;;16.30;88.10;;;;;;2098846;28;20094;-78
2022/07/29 04:13:11;;;;;;;32.33;22.13;;;16.30;88.00;;;;;;2106722;28;20343;-78
2022/07/29 04:14:12;;;;;;;34.90;24.27;;;16.30;88.10;;;;;;2107003;28;20131;-78
2022/07/29 04:15:13;;;;;;;37.22;23.65;;;16.40;88.90;;;;;;2106823;28;20020;-78
2022/07/29 04:16:13;;;;;;;33.13;23.77;;;16.40;89.00;;;;;;2106964;28;20059;-78
2022/07/29 04:17:14;;;;;;;35.45;25.27;;;16.40;89.30;;;;;;2106887;28;20031;-77
2022/07/29 04:18:14;;;;;;;37.33;25.73;;;16.40;89.50;;;;;;2103020;28;20043;-78
2022/07/29 04:19:15;;;;;;;36.00;25.33;;;16.40;89.40;;;;;;2105838;28;20103;-79
2022/07/29 04:20:16;;;;;;;36.50;25.77;;;16.50;89.50;;;;;;2106087;28;20034;-78
2022/07/29 04:21:16;;;;;;;33.70;25.40;;;16.50;89.70;;;;;;2097453;28;20023;-77
2022/07/29 04:22:17;;;;;;;34.92;25.65;;;16.60;89.80;;;;;;2106061;28;20085;-80
2022/07/29 04:23:18;;;;;;;37.75;25.58;;;16.60;90.00;;;;;;2106212;28;20512;-78
2022/07/29 04:24:18;;;;;;;35.80;25.90;;;16.60;89.90;;;;;;2097990;28;20086;-77
2022/07/29 04:25:19;;;;;;;37.17;26.63;;;16.60;90.30;;;;;;2103499;28;20024;-77
2022/07/29 04:26:20;;;;;;;36.78;26.45;;;16.70;90.20;;;;;;2106397;28;20086;-78
2022/07/29 04:27:21;;;;;;;38.70;26.58;;;16.70;90.30;;;;;;2107382;28;20013;-78
2022/07/29 04:28:21;;;;;;;36.00;27.02;;;16.70;90.30;;;;;;2098088;28;20020;-78
2022/07/29 04:29:22;;;;;;;35.60;26.27;;;16.80;90.40;;;;;;2089810;28;20017;-78
2022/07/29 04:30:23;;;;;;;34.67;25.75;;;16.80;90.40;;;;;;2098637;28;20099;-77
2022/07/29 04:31:24;;;;;;;38.63;25.95;;;16.80;90.40;;;;;;2106220;28;20024;-79
2022/07/29 04:32:26;;;;;;;36.13;26.63;;;16.90;90.30;;;;;;2107242;28;20077;-78
2022/07/29 04:33:27;;;;;;;35.92;26.30;;;16.90;90.20;;;;;;2107478;28;20024;-77
2022/07/29 04:34:27;;;;;;;35.08;24.33;;;16.90;90.20;;;;;;2107571;28;20033;-77
2022/07/29 04:35:29;;;;;;;33.83;24.20;;;16.90;90.10;;;;;;2107162;28;20486;-77
2022/07/29 04:36:30;;;;;;;36.17;24.48;;;17.00;90.00;;;;;;2107068;28;20032;-78
2022/07/29 04:37:31;;;;;;;34.72;24.35;;;17.00;90.00;;;;;;2107776;28;20036;-77
2022/07/29 04:38:31;;;;;;;31.15;23.55;;;17.10;89.80;;;;;;2105942;28;20081;-77
2022/07/29 04:39:32;;;;;;;34.83;24.58;;;17.10;89.70;;;;;;2106662;28;20484;-78
2022/07/29 04:40:33;;;;;;;33.38;25.10;;;17.20;89.80;;;;;;2106651;28;20078;-77
2022/07/29 04:41:34;;;;;;;32.78;24.13;;;17.20;89.60;;;;;;2098518;28;20017;-79
2022/07/29 04:42:34;;;;;;;36.35;24.02;;;17.30;89.30;;;;;;2089555;28;20433;-77
2022/07/29 04:43:35;;;;;;;32.92;24.70;;;17.30;88.90;;;;;;2098476;28;20017;-77
2022/07/29 04:44:36;;;;;;;35.85;25.45;;;17.40;88.20;;;;;;2107730;28;20028;-79
2022/07/29 04:45:37;;;;;;;39.00;25.83;;;17.40;87.60;;;;;;2108433;28;20044;-79
2022/07/29 04:46:38;;;;;;;35.22;25.50;;;17.40;87.30;;;;;;2100559;28;20033;-78
2022/07/29 04:47:39;;;;;;;35.38;25.15;;;17.40;87.20;;;;;;2090821;28;20028;-79
2022/07/29 04:48:40;;;;;;;33.15;23.70;;;17.50;86.90;;;;;;2098814;28;20020;-76
2022/07/29 04:49:40;;;;;;;32.45;23.13;;;17.50;86.50;;;;;;2107564;28;20032;-78
2022/07/29 04:50:41;;;;;;;30.10;22.38;;;17.50;86.30;;;;;;2107231;28;20032;-77
2022/07/29 04:51:42;;;;;;;30.20;22.33;;;17.50;86.00;;;;;;2107436;28;20028;-78
2022/07/29 04:52:43;;;;;;;30.23;22.05;;;17.50;85.90;;;;;;2108983;28;20106;-77
2022/07/29 04:53:43;;;;;;;30.88;21.52;;;17.50;85.90;;;;;;2108764;28;20028;-78
2022/07/29 04:54:44;;;;;;;29.20;21.85;;;17.50;85.80;;;;;;2108571;28;20035;-77
2022/07/29 04:55:45;;;;;;;31.20;21.60;;;17.50;85.80;;;;;;2109167;28;20143;-76
2022/07/29 04:56:46;;;;;;;31.55;22.95;;;17.50;86.10;;;;;;2101086;28;20417;-78
2022/07/29 04:57:46;;;;;;;34.95;25.00;;;17.50;86.20;;;;;;2100716;28;20051;-78
2022/07/29 04:58:47;;;;;;;30.95;22.30;;;17.50;86.50;;;;;;2109589;28;20501;-77
2022/07/29 04:59:48;;;;;;;31.08;23.23;;;17.50;86.60;;;;;;2100729;28;20111;-77
2022/07/29 05:00:50;;;;;;;33.35;23.70;;;17.50;86.70;;;;;;2100756;28;20046;-76
2022/07/29 05:01:50;;;;;;;41.58;26.00;;;17.60;86.80;;;;;;2102566;28;20063;-77
2022/07/29 05:02:51;;;;;;;37.65;24.02;;;17.60;86.40;;;;;;2106965;28;20028;-77
2022/07/29 05:03:52;;;;;;;33.28;24.17;;;17.60;86.30;;;;;;2108701;28;20028;-76
2022/07/29 05:04:52;;;;;;;34.20;23.30;;;17.60;86.30;;;;;;2108895;28;20054;-77
2022/07/29 05:05:53;;;;;;;34.42;23.60;;;17.60;86.30;;;;;;2109429;28;20367;-79
2022/07/29 05:06:54;;;;;;;34.55;23.77;;;17.70;86.40;;;;;;2108795;28;20070;-76
2022/07/29 05:07:55;;;;;;;34.15;23.65;;;17.90;86.60;;;;;;2109098;28;20043;-77
2022/07/29 05:08:56;;;;;;;34.72;23.75;;;18.00;86.50;;;;;;2109822;28;20036;-77
2022/07/29 05:09:56;;;;;;;33.85;22.77;;;18.00;86.10;;;;;;2109478;28;20034;-77
2022/07/29 05:10:57;;;;;;;31.70;23.67;;;18.20;85.80;;;;;;2109260;28;20630;-78
2022/07/29 05:11:58;;;;;;;34.78;23.00;;;18.30;85.70;;;;;;2109650;28;20044;-78
2022/07/29 05:12:58;;;;;;;32.58;22.45;;;18.50;85.50;;;;;;2109839;28;20362;-77
2022/07/29 05:13:59;;;;;;;32.63;22.27;;;18.70;85.00;;;;;;2108846;28;20059;-77
2022/07/29 05:15:00;;;;;;;33.42;22.83;;;18.80;84.30;;;;;;2109304;28;20463;-79
2022/07/29 05:16:01;;;;;;;32.13;20.88;;;18.90;83.80;;;;;;2109745;28;20043;-78
2022/07/29 05:17:02;;;;;;;27.60;20.58;;;19.00;83.30;;;;;;2100242;28;20704;-79
2022/07/29 05:18:03;;;;;;;32.33;21.90;;;19.10;81.90;;;;;;2100573;28;20027;-77
2022/07/29 05:19:04;;;;;;;34.85;22.48;;;19.10;81.30;;;;;;2109046;28;20050;-78
2022/07/29 05:20:06;;;;;;;32.38;22.73;;;19.10;81.10;;;;;;2109382;28;20035;-77
2022/07/29 05:21:06;;;;;;;31.95;21.80;;;19.10;81.00;;;;;;2108562;28;20027;-78
2022/07/29 05:22:07;;;;;;;33.00;22.33;;;19.00;80.90;;;;;;2109395;28;20091;-78
2022/07/29 05:23:08;;;;;;;34.72;21.65;;;18.90;80.90;;;;;;2101375;28;20041;-79
2022/07/29 05:24:09;;;;;;;32.03;21.30;;;18.90;80.80;;;;;;2096251;28;20024;-78
2022/07/29 05:25:10;;;;;;;33.15;22.05;;;18.90;80.80;;;;;;2100747;28;20017;-79
2022/07/29 05:26:10;;;;;;;32.25;21.25;;;18.90;80.80;;;;;;2099958;28;20409;-77
2022/07/29 05:27:11;;;;;;;30.42;20.70;;;18.90;80.90;;;;;;2108831;28;20066;-79
2022/07/29 05:28:12;;;;;;;31.05;21.88;;;19.00;80.70;;;;;;2109642;28;20111;-79
2022/07/29 05:29:13;;;;;;;30.70;20.55;;;19.10;80.40;;;;;;2109538;28;20024;-78
2022/07/29 05:30:13;;;;;;;29.95;20.45;;;19.10;80.10;;;;;;2109215;28;20023;-78